createdAt,value
2019-05-19T00:00:43.932Z,1001.29
2019-05-19T00:01:43.944Z,1001.26
2019-05-19T00:02:43.912Z,1001.29
2019-05-19T00:03:43.900Z,1001.32
2019-05-19T00:04:43.901Z,1001.33
2019-05-19T00:05:43.879Z,1001.32
2019-05-19T00:06:43.877Z,1001.30
2019-05-19T00:07:43.863Z,1001.33
2019-05-19T00:08:43.857Z,1001.32
2019-05-19T00:09:43.845Z,1001.34
2019-05-19T00:10:43.845Z,1001.32
2019-05-19T00:11:43.816Z,1001.35
2019-05-19T00:12:43.804Z,1001.39
2019-05-19T00:13:43.794Z,1001.34
2019-05-19T00:14:43.795Z,1001.38
2019-05-19T00:15:43.817Z,1001.39
2019-05-19T00:16:43.776Z,1001.38
2019-05-19T00:17:43.755Z,1001.39
2019-05-19T00:18:43.740Z,1001.40
2019-05-19T00:19:43.742Z,1001.39
2019-05-19T00:20:43.719Z,1001.39
2019-05-19T00:21:43.709Z,1001.38
2019-05-19T00:22:43.698Z,1001.37
2019-05-19T00:23:43.686Z,1001.38
2019-05-19T00:24:43.695Z,1001.37
2019-05-19T00:25:43.668Z,1001.36
2019-05-19T00:26:43.663Z,1001.38
2019-05-19T00:27:43.649Z,1001.36
2019-05-19T00:28:43.638Z,1001.39
2019-05-19T00:29:43.683Z,1001.37
2019-05-19T00:30:43.613Z,1001.40
2019-05-19T00:31:43.615Z,1001.35
2019-05-19T00:32:43.590Z,1001.34
2019-05-19T00:33:43.580Z,1001.31
2019-05-19T00:34:43.607Z,1001.34
2019-05-19T00:35:43.565Z,1001.30
2019-05-19T00:36:43.551Z,1001.35
2019-05-19T00:37:43.537Z,1001.31
2019-05-19T00:38:43.526Z,1001.29
2019-05-19T00:39:43.522Z,1001.33
2019-05-19T00:40:43.503Z,1001.31
2019-05-19T00:41:43.511Z,1001.35
2019-05-19T00:42:43.482Z,1001.32
2019-05-19T00:43:43.470Z,1001.30
2019-05-19T00:44:43.470Z,1001.36
2019-05-19T00:45:43.450Z,1001.32
2019-05-19T00:46:43.439Z,1001.34
2019-05-19T00:47:43.428Z,1001.38
2019-05-19T00:48:43.420Z,1001.31
2019-05-19T00:49:43.415Z,1001.27
2019-05-19T00:50:43.397Z,1001.33
2019-05-19T00:51:43.386Z,1001.28
2019-05-19T00:52:43.383Z,1001.30
2019-05-19T00:53:43.371Z,1001.33
2019-05-19T00:54:43.362Z,1001.30
2019-05-19T00:55:43.342Z,1001.29
2019-05-19T00:56:43.334Z,1001.29
2019-05-19T00:57:43.324Z,1001.27
2019-05-19T00:58:43.308Z,1001.28
2019-05-19T00:59:43.316Z,1001.25
2019-05-19T01:00:43.292Z,1001.27
2019-05-19T01:01:43.293Z,1001.23
2019-05-19T01:02:43.268Z,1001.23
2019-05-19T01:03:43.255Z,1001.26
2019-05-19T01:04:43.271Z,1001.26
2019-05-19T01:05:43.239Z,1001.26
2019-05-19T01:06:43.223Z,1001.21
2019-05-19T01:07:43.213Z,1001.21
2019-05-19T01:08:43.200Z,1001.21
2019-05-19T01:09:43.222Z,1001.21
2019-05-19T01:10:43.215Z,1001.27
2019-05-19T01:11:43.167Z,1001.21
2019-05-19T01:12:43.157Z,1001.20
2019-05-19T01:13:43.146Z,1001.24
2019-05-19T01:14:43.135Z,1001.22
2019-05-19T01:15:43.136Z,1001.22
2019-05-19T01:16:43.116Z,1001.21
2019-05-19T01:17:43.104Z,1001.24
2019-05-19T01:18:43.094Z,1001.24
2019-05-19T01:19:55.335Z,1001.24
2019-05-19T01:20:44.102Z,1001.25
2019-05-19T01:21:43.075Z,1001.26
2019-05-19T01:22:43.055Z,1001.27
2019-05-19T01:23:43.042Z,1001.25
2019-05-19T01:24:43.027Z,1001.22
2019-05-19T01:25:43.025Z,1001.24
2019-05-19T01:26:43.005Z,1001.26
2019-05-19T01:27:42.995Z,1001.22
2019-05-19T01:28:42.987Z,1001.28
2019-05-19T01:29:42.979Z,1001.23
2019-05-19T01:30:43.003Z,1001.24
2019-05-19T01:31:42.951Z,1001.22
2019-05-19T01:32:42.942Z,1001.25
2019-05-19T01:33:42.942Z,1001.20
2019-05-19T01:34:42.929Z,1001.19
2019-05-19T01:35:42.922Z,1001.19
2019-05-19T01:36:42.900Z,1001.17
2019-05-19T01:37:42.894Z,1001.21
2019-05-19T01:38:42.875Z,1001.18
2019-05-19T01:39:42.864Z,1001.16
2019-05-19T01:40:42.864Z,1001.17
2019-05-19T01:41:42.845Z,1001.18
2019-05-19T01:42:42.832Z,1001.19
2019-05-19T01:43:42.822Z,1001.18
2019-05-19T01:44:42.810Z,1001.24
2019-05-19T01:45:42.816Z,1001.23
2019-05-19T01:46:42.806Z,1001.24
2019-05-19T01:47:42.780Z,1001.23
2019-05-19T01:48:42.766Z,1001.21
2019-05-19T01:49:42.756Z,1001.24
2019-05-19T01:50:42.782Z,1001.22
2019-05-19T01:51:42.739Z,1001.18
2019-05-19T01:52:42.742Z,1001.18
2019-05-19T01:53:42.715Z,1001.18
2019-05-19T01:54:42.701Z,1001.17
2019-05-19T01:55:42.699Z,1001.12
2019-05-19T01:56:42.686Z,1001.13
2019-05-19T01:57:42.675Z,1001.09
2019-05-19T01:58:42.661Z,1001.12
2019-05-19T01:59:42.654Z,1001.10
2019-05-19T02:00:42.645Z,1001.12
2019-05-19T02:01:42.633Z,1001.17
2019-05-19T02:02:42.615Z,1001.18
2019-05-19T02:03:42.605Z,1001.17
2019-05-19T02:04:42.594Z,1001.14
2019-05-19T02:05:42.590Z,1001.16
2019-05-19T02:06:42.577Z,1001.15
2019-05-19T02:07:42.568Z,1001.14
2019-05-19T02:08:42.553Z,1001.15
2019-05-19T02:09:42.635Z,1001.17
2019-05-19T02:10:42.539Z,1001.20
2019-05-19T02:11:42.526Z,1001.17
2019-05-19T02:12:42.529Z,1001.14
2019-05-19T02:13:42.495Z,1001.12
2019-05-19T02:14:42.487Z,1001.10
2019-05-19T02:15:42.515Z,1001.12
2019-05-19T02:16:42.464Z,1001.04
2019-05-19T02:17:42.454Z,1001.07
2019-05-19T02:18:42.457Z,1001.09
2019-05-19T02:19:42.433Z,1001.01
2019-05-19T02:20:42.433Z,1001.11
2019-05-19T02:21:42.473Z,1001.11
2019-05-19T02:22:42.409Z,1001.02
2019-05-19T02:23:42.387Z,1001.04
2019-05-19T02:24:42.380Z,1001.04
2019-05-19T02:25:42.377Z,1001.04
2019-05-19T02:26:42.370Z,1001.03
2019-05-19T02:27:42.363Z,1001.02
2019-05-19T02:28:42.333Z,1001.07
2019-05-19T02:29:42.328Z,1001.11
2019-05-19T02:30:42.314Z,1001.15
2019-05-19T02:31:42.312Z,1001.13
2019-05-19T02:32:42.293Z,1001.11
2019-05-19T02:33:42.281Z,1001.13
2019-05-19T02:34:42.269Z,1001.09
2019-05-19T02:35:42.259Z,1001.12
2019-05-19T02:36:42.263Z,1001.09
2019-05-19T02:37:42.238Z,1001.12
2019-05-19T02:38:42.227Z,1001.05
2019-05-19T02:39:42.214Z,1001.07
2019-05-19T02:40:42.203Z,1001.08
2019-05-19T02:41:42.203Z,1001.11
2019-05-19T02:42:42.185Z,1001.17
2019-05-19T02:43:42.172Z,1001.10
2019-05-19T02:44:42.174Z,1001.12
2019-05-19T02:45:42.150Z,1001.19
2019-05-19T02:46:42.148Z,1001.20
2019-05-19T02:47:42.129Z,1001.16
2019-05-19T02:48:42.119Z,1001.13
2019-05-19T02:49:42.104Z,1001.15
2019-05-19T02:50:51.671Z,1001.13
2019-05-19T02:51:43.097Z,1001.13
2019-05-19T02:52:42.079Z,1001.10
2019-05-19T02:53:42.081Z,1001.11
2019-05-19T02:54:42.065Z,1001.12
2019-05-19T02:55:42.042Z,1001.11
2019-05-19T02:56:42.044Z,1001.09
2019-05-19T02:57:42.021Z,1001.07
2019-05-19T02:58:42.010Z,1001.06
2019-05-19T02:59:41.998Z,1001.05
2019-05-19T03:00:42.013Z,1001.06
2019-05-19T03:01:41.990Z,1001.05
2019-05-19T03:02:41.970Z,1001.02
2019-05-19T03:03:41.954Z,1001.00
2019-05-19T03:04:41.954Z,1001.05
2019-05-19T03:05:41.932Z,1001.04
2019-05-19T03:06:41.931Z,1001.05
2019-05-19T03:07:41.923Z,1001.06
2019-05-19T03:08:41.908Z,1001.08
2019-05-19T03:09:41.891Z,1001.10
2019-05-19T03:10:41.883Z,1001.11
2019-05-19T03:11:41.877Z,1001.14
2019-05-19T03:12:41.854Z,1001.10
2019-05-19T03:13:41.845Z,1001.10
2019-05-19T03:14:41.834Z,1001.09
2019-05-19T03:15:41.822Z,1001.07
2019-05-19T03:16:41.819Z,1001.09
2019-05-19T03:17:41.810Z,1001.09
2019-05-19T03:18:41.787Z,1001.04
2019-05-19T03:19:41.782Z,1001.07
2019-05-19T03:20:41.766Z,1000.99
2019-05-19T03:21:41.763Z,1001.01
2019-05-19T03:22:41.748Z,1001.02
2019-05-19T03:23:41.734Z,1001.00
2019-05-19T03:24:41.723Z,1000.97
2019-05-19T03:25:44.215Z,1001.01
2019-05-19T03:26:41.893Z,1001.01
2019-05-19T03:27:41.691Z,1001.01
2019-05-19T03:28:41.687Z,1001.02
2019-05-19T03:29:41.669Z,1001.02
2019-05-19T03:30:41.685Z,1001.04
2019-05-19T03:31:41.648Z,1001.06
2019-05-19T03:32:41.660Z,1001.03
2019-05-19T03:33:41.654Z,1001.05
2019-05-19T03:34:41.627Z,1001.03
2019-05-19T03:35:41.604Z,1001.06
2019-05-19T03:36:41.601Z,1001.10
2019-05-19T03:37:41.592Z,1001.07
2019-05-19T03:38:41.575Z,1001.00
2019-05-19T03:39:41.559Z,1001.06
2019-05-19T03:40:41.549Z,1001.07
2019-05-19T03:41:41.539Z,1001.09
2019-05-19T03:42:41.550Z,1001.14
2019-05-19T03:43:41.518Z,1001.15
2019-05-19T03:44:41.506Z,1001.23
2019-05-19T03:45:41.495Z,1001.21
2019-05-19T03:46:41.484Z,1001.17
2019-05-19T03:47:41.482Z,1001.21
2019-05-19T03:48:41.464Z,1001.23
2019-05-19T03:49:41.452Z,1001.28
2019-05-19T03:50:41.440Z,1001.26
2019-05-19T03:51:41.429Z,1001.26
2019-05-19T03:52:41.432Z,1001.22
2019-05-19T03:53:41.411Z,1001.18
2019-05-19T03:54:41.408Z,1001.16
2019-05-19T03:55:41.402Z,1001.20
2019-05-19T03:56:41.377Z,1001.24
2019-05-19T03:57:41.374Z,1001.28
2019-05-19T03:58:41.357Z,1001.19
2019-05-19T03:59:41.341Z,1001.22
2019-05-19T04:00:41.331Z,1001.23
2019-05-19T04:01:41.319Z,1001.25
2019-05-19T04:02:41.318Z,1001.22
2019-05-19T04:03:41.356Z,1001.24
2019-05-19T04:04:41.288Z,1001.26
2019-05-19T04:05:41.277Z,1001.31
2019-05-19T04:06:41.332Z,1001.32
2019-05-19T04:07:41.281Z,1001.29
2019-05-19T04:08:41.243Z,1001.32
2019-05-19T04:09:41.230Z,1001.36
2019-05-19T04:10:41.221Z,1001.29
2019-05-19T04:11:41.210Z,1001.27
2019-05-19T04:12:41.208Z,1001.34
2019-05-19T04:13:41.191Z,1001.32
2019-05-19T04:14:41.178Z,1001.40
2019-05-19T04:15:41.167Z,1001.41
2019-05-19T04:16:41.157Z,1001.45
2019-05-19T04:17:41.158Z,1001.41
2019-05-19T04:18:41.134Z,1001.46
2019-05-19T04:19:41.121Z,1001.46
2019-05-19T04:20:41.115Z,1001.46
2019-05-19T04:21:48.796Z,1001.46
2019-05-19T04:22:42.101Z,1001.45
2019-05-19T04:23:41.081Z,1001.49
2019-05-19T04:24:41.078Z,1001.45
2019-05-19T04:25:41.060Z,1001.48
2019-05-19T04:26:41.056Z,1001.51
2019-05-19T04:27:41.046Z,1001.48
2019-05-19T04:28:41.026Z,1001.52
2019-05-19T04:29:41.017Z,1001.51
2019-05-19T04:30:41.004Z,1001.52
2019-05-19T04:31:40.994Z,1001.48
2019-05-19T04:32:41.006Z,1001.55
2019-05-19T04:33:40.973Z,1001.53
2019-05-19T04:34:40.961Z,1001.56
2019-05-19T04:35:40.956Z,1001.59
2019-05-19T04:36:40.940Z,1001.53
2019-05-19T04:37:40.933Z,1001.56
2019-05-19T04:38:40.935Z,1001.56
2019-05-19T04:39:40.911Z,1001.52
2019-05-19T04:40:40.897Z,1001.58
2019-05-19T04:41:40.888Z,1001.54
2019-05-19T04:42:40.878Z,1001.51
2019-05-19T04:43:40.891Z,1001.54
2019-05-19T04:44:40.855Z,1001.61
2019-05-19T04:45:40.848Z,1001.59
2019-05-19T04:46:40.834Z,1001.60
2019-05-19T04:47:40.826Z,1001.63
2019-05-19T04:48:40.819Z,1001.53
2019-05-19T04:49:40.803Z,1001.61
2019-05-19T04:50:40.792Z,1001.59
2019-05-19T04:51:40.797Z,1001.54
2019-05-19T04:52:40.771Z,1001.54
2019-05-19T04:53:40.767Z,1001.47
2019-05-19T04:54:40.747Z,1001.51
2019-05-19T04:55:40.742Z,1001.52
2019-05-19T04:56:40.726Z,1001.54
2019-05-19T04:57:40.717Z,1001.51
2019-05-19T04:58:40.715Z,1001.52
2019-05-19T04:59:40.695Z,1001.56
2019-05-19T05:00:40.691Z,1001.53
2019-05-19T05:01:40.682Z,1001.53
2019-05-19T05:02:40.672Z,1001.57
2019-05-19T05:03:40.664Z,1001.54
2019-05-19T05:04:40.655Z,1001.57
2019-05-19T05:05:40.635Z,1001.57
2019-05-19T05:06:40.623Z,1001.60
2019-05-19T05:07:40.620Z,1001.58
2019-05-19T05:08:40.614Z,1001.64
2019-05-19T05:09:40.591Z,1001.59
2019-05-19T05:10:40.580Z,1001.59
2019-05-19T05:11:40.569Z,1001.64
2019-05-19T05:12:40.559Z,1001.58
2019-05-19T05:13:40.561Z,1001.59
2019-05-19T05:14:40.538Z,1001.59
2019-05-19T05:15:40.527Z,1001.48
2019-05-19T05:16:40.552Z,1001.50
2019-05-19T05:17:40.518Z,1001.44
2019-05-19T05:18:40.504Z,1001.41
2019-05-19T05:19:40.528Z,1001.46
2019-05-19T05:20:40.476Z,1001.40
2019-05-19T05:21:40.465Z,1001.48
2019-05-19T05:22:40.458Z,1001.47
2019-05-19T05:23:40.453Z,1001.50
2019-05-19T05:24:40.434Z,1001.51
2019-05-19T05:25:40.423Z,1001.47
2019-05-19T05:26:40.427Z,1001.50
2019-05-19T05:27:40.401Z,1001.48
2019-05-19T05:28:40.399Z,1001.50
2019-05-19T05:29:40.380Z,1001.57
2019-05-19T05:30:40.373Z,1001.52
2019-05-19T05:31:40.358Z,1001.54
2019-05-19T05:32:40.350Z,1001.61
2019-05-19T05:33:40.346Z,1001.53
2019-05-19T05:34:40.327Z,1001.54
2019-05-19T05:35:40.316Z,1001.57
2019-05-19T05:36:40.305Z,1001.55
2019-05-19T05:37:40.296Z,1001.52
2019-05-19T05:38:40.297Z,1001.51
2019-05-19T05:39:40.272Z,1001.52
2019-05-19T05:40:40.262Z,1001.58
2019-05-19T05:41:40.254Z,1001.60
2019-05-19T05:42:40.257Z,1001.58
2019-05-19T05:43:40.241Z,1001.54
2019-05-19T05:44:40.222Z,1001.50
2019-05-19T05:45:40.211Z,1001.48
2019-05-19T05:46:40.202Z,1001.43
2019-05-19T05:47:40.187Z,1001.45
2019-05-19T05:48:40.214Z,1001.49
2019-05-19T05:49:40.168Z,1001.44
2019-05-19T05:50:40.157Z,1001.44
2019-05-19T05:51:40.147Z,1001.52
2019-05-19T05:52:40.136Z,1001.54
2019-05-19T05:53:40.124Z,1001.52
2019-05-19T05:54:40.121Z,1001.52
2019-05-19T05:55:40.103Z,1001.52
2019-05-19T05:56:40.091Z,1001.50
2019-05-19T05:57:40.091Z,1001.50
2019-05-19T05:58:40.070Z,1001.53
2019-05-19T05:59:40.069Z,1001.52
2019-05-19T06:00:40.052Z,1001.56
2019-05-19T06:01:40.044Z,1001.55
2019-05-19T06:02:40.029Z,1001.48
2019-05-19T06:03:40.018Z,1001.47
2019-05-19T06:04:40.015Z,1001.50
2019-05-19T06:05:40.000Z,1001.52
2019-05-19T06:06:39.987Z,1001.57
2019-05-19T06:07:39.976Z,1001.58
2019-05-19T06:08:39.969Z,1001.60
2019-05-19T06:09:39.967Z,1001.56
2019-05-19T06:10:39.945Z,1001.63
2019-05-19T06:11:39.936Z,1001.63
2019-05-19T06:12:39.923Z,1001.64
2019-05-19T06:13:39.914Z,1001.68
2019-05-19T06:14:39.912Z,1001.68
2019-05-19T06:15:39.891Z,1001.71
2019-05-19T06:16:39.881Z,1001.75
2019-05-19T06:17:39.872Z,1001.69
2019-05-19T06:18:39.863Z,1001.79
2019-05-19T06:19:39.869Z,1001.65
2019-05-19T06:20:39.841Z,1001.77
2019-05-19T06:21:39.831Z,1001.76
2019-05-19T06:22:55.121Z,1001.74
2019-05-19T06:23:40.811Z,1001.75
2019-05-19T06:24:39.815Z,1001.74
2019-05-19T06:25:39.793Z,1001.80
2019-05-19T06:26:39.785Z,1001.79
2019-05-19T06:27:39.773Z,1001.72
2019-05-19T06:28:39.762Z,1001.70
2019-05-19T06:29:39.772Z,1001.79
2019-05-19T06:30:39.742Z,1001.77
2019-05-19T06:31:39.735Z,1001.82
2019-05-19T06:32:39.722Z,1001.79
2019-05-19T06:33:39.712Z,1001.77
2019-05-19T06:34:39.716Z,1001.79
2019-05-19T06:35:39.694Z,1001.75
2019-05-19T06:36:39.683Z,1001.74
2019-05-19T06:37:39.673Z,1001.74
2019-05-19T06:38:39.678Z,1001.71
2019-05-19T06:39:39.661Z,1001.76
2019-05-19T06:40:39.644Z,1001.78
2019-05-19T06:41:39.634Z,1001.80
2019-05-19T06:42:39.623Z,1001.78
2019-05-19T06:43:39.636Z,1001.73
2019-05-19T06:44:39.615Z,1001.70
2019-05-19T06:45:39.596Z,1001.68
2019-05-19T06:46:39.587Z,1001.70
2019-05-19T06:47:39.576Z,1001.69
2019-05-19T06:48:39.569Z,1001.67
2019-05-19T06:49:39.563Z,1001.71
2019-05-19T06:50:40.722Z,1001.68
2019-05-19T06:51:39.533Z,1001.64
2019-05-19T06:52:39.523Z,1001.63
2019-05-19T06:53:39.512Z,1001.53
2019-05-19T06:54:39.511Z,1001.59
2019-05-19T06:55:39.491Z,1001.62
2019-05-19T06:56:39.481Z,1001.63
2019-05-19T06:57:39.474Z,1001.58
2019-05-19T06:58:39.460Z,1001.62
2019-05-19T06:59:39.461Z,1001.64
2019-05-19T07:00:39.444Z,1001.59
2019-05-19T07:01:39.433Z,1001.61
2019-05-19T07:02:39.421Z,1001.62
2019-05-19T07:03:39.410Z,1001.62
2019-05-19T07:04:39.450Z,1001.63
2019-05-19T07:05:39.393Z,1001.62
2019-05-19T07:06:39.397Z,1001.62
2019-05-19T07:07:39.370Z,1001.60
2019-05-19T07:08:39.359Z,1001.63
2019-05-19T07:09:39.351Z,1001.58
2019-05-19T07:10:39.347Z,1001.59
2019-05-19T07:11:39.328Z,1001.59
2019-05-19T07:12:39.319Z,1001.60
2019-05-19T07:13:39.307Z,1001.58
2019-05-19T07:14:39.296Z,1001.57
2019-05-19T07:15:39.295Z,1001.56
2019-05-19T07:16:39.277Z,1001.52
2019-05-19T07:17:39.265Z,1001.48
2019-05-19T07:18:39.270Z,1001.52
2019-05-19T07:19:39.246Z,1001.54
2019-05-19T07:20:39.250Z,1001.49
2019-05-19T07:21:39.224Z,1001.47
2019-05-19T07:22:39.216Z,1001.47
2019-05-19T07:23:39.205Z,1001.45
2019-05-19T07:24:39.195Z,1001.40
2019-05-19T07:25:39.191Z,1001.36
2019-05-19T07:26:39.172Z,1001.42
2019-05-19T07:27:39.161Z,1001.44
2019-05-19T07:28:39.152Z,1001.40
2019-05-19T07:29:39.142Z,1001.38
2019-05-19T07:30:39.143Z,1001.41
2019-05-19T07:31:39.121Z,1001.36
2019-05-19T07:32:39.112Z,1001.32
2019-05-19T07:33:39.101Z,1001.39
2019-05-19T07:34:39.090Z,1001.36
2019-05-19T07:35:39.087Z,1001.36
2019-05-19T07:36:39.069Z,1001.36
2019-05-19T07:37:39.060Z,1001.32
2019-05-19T07:38:39.046Z,1001.30
2019-05-19T07:39:39.050Z,1001.35
2019-05-19T07:40:39.033Z,1001.36
2019-05-19T07:41:39.013Z,1001.33
2019-05-19T07:42:39.045Z,1001.39
2019-05-19T07:43:38.997Z,1001.35
2019-05-19T07:44:38.984Z,1001.40
2019-05-19T07:45:38.979Z,1001.40
2019-05-19T07:46:38.964Z,1001.34
2019-05-19T07:47:38.953Z,1001.37
2019-05-19T07:48:38.942Z,1001.39
2019-05-19T07:49:38.928Z,1001.30
2019-05-19T07:50:38.926Z,1001.35
2019-05-19T07:51:38.913Z,1001.33
2019-05-19T07:52:38.901Z,1001.32
2019-05-19T07:53:42.976Z,1001.31
2019-05-19T07:54:38.874Z,1001.31
2019-05-19T07:55:38.876Z,1001.28
2019-05-19T07:56:38.857Z,1001.28
2019-05-19T07:57:38.841Z,1001.31
2019-05-19T07:58:38.831Z,1001.26
2019-05-19T07:59:38.819Z,1001.23
2019-05-19T08:00:38.816Z,1001.19
2019-05-19T08:01:38.798Z,1001.20
2019-05-19T08:02:38.866Z,1001.18
2019-05-19T08:03:38.778Z,1001.16
2019-05-19T08:04:38.765Z,1001.17
2019-05-19T08:05:38.771Z,1001.16
2019-05-19T08:06:38.747Z,1001.17
2019-05-19T08:07:38.763Z,1001.17
2019-05-19T08:08:38.722Z,1001.17
2019-05-19T08:09:38.714Z,1001.13
2019-05-19T08:10:38.712Z,1001.22
2019-05-19T08:11:38.692Z,1001.25
2019-05-19T08:12:38.685Z,1001.17
2019-05-19T08:13:38.672Z,1001.23
2019-05-19T08:14:38.661Z,1001.13
2019-05-19T08:15:38.657Z,1001.12
2019-05-19T08:16:38.638Z,1001.09
2019-05-19T08:17:38.632Z,1001.06
2019-05-19T08:18:38.621Z,1001.11
2019-05-19T08:19:38.607Z,1001.10
2019-05-19T08:20:38.897Z,1001.09
2019-05-19T08:21:38.583Z,1001.06
2019-05-19T08:22:38.587Z,1001.09
2019-05-19T08:23:38.563Z,1001.03
2019-05-19T08:24:38.559Z,1001.05
2019-05-19T08:25:38.541Z,1001.02
2019-05-19T08:26:38.562Z,1001.06
2019-05-19T08:27:38.550Z,1001.11
2019-05-19T08:28:38.541Z,1001.02
2019-05-19T08:29:38.536Z,1001.07
2019-05-19T08:30:38.491Z,1001.10
2019-05-19T08:31:38.485Z,1001.09
2019-05-19T08:32:38.467Z,1001.09
2019-05-19T08:33:38.467Z,1001.12
2019-05-19T08:34:38.445Z,1001.10
2019-05-19T08:35:38.435Z,1001.10
2019-05-19T08:36:38.433Z,1001.15
2019-05-19T08:37:38.415Z,1001.12
2019-05-19T08:38:38.407Z,1001.12
2019-05-19T08:39:38.396Z,1001.13
2019-05-19T08:40:38.383Z,1001.12
2019-05-19T08:41:38.379Z,1001.13
2019-05-19T08:42:38.360Z,1001.06
2019-05-19T08:43:38.349Z,1001.10
2019-05-19T08:44:38.345Z,1001.10
2019-05-19T08:45:38.330Z,1001.09
2019-05-19T08:46:38.328Z,1001.06
2019-05-19T08:47:38.314Z,1001.06
2019-05-19T08:48:38.298Z,1001.13
2019-05-19T08:49:38.289Z,1001.05
2019-05-19T08:50:38.276Z,1001.15
2019-05-19T08:51:38.276Z,1001.07
2019-05-19T08:52:38.259Z,1001.13
2019-05-19T08:53:38.249Z,1001.10
2019-05-19T08:54:38.236Z,1001.10
2019-05-19T08:55:38.225Z,1001.09
2019-05-19T08:56:38.222Z,1001.16
2019-05-19T08:57:38.203Z,1001.09
2019-05-19T08:58:38.195Z,1001.08
2019-05-19T08:59:38.187Z,1001.15
2019-05-19T09:00:38.636Z,1001.09
2019-05-19T09:01:38.172Z,1001.06
2019-05-19T09:02:38.152Z,1001.01
2019-05-19T09:03:38.143Z,1001.07
2019-05-19T09:04:38.136Z,1001.18
2019-05-19T09:05:38.124Z,1001.13
2019-05-19T09:06:38.117Z,1001.13
2019-05-19T09:07:38.099Z,1001.09
2019-05-19T09:08:38.092Z,1001.11
2019-05-19T09:09:38.081Z,1001.08
2019-05-19T09:10:38.072Z,1001.11
2019-05-19T09:11:38.068Z,1000.99
2019-05-19T09:12:38.046Z,1001.04
2019-05-19T09:13:38.035Z,1001.02
2019-05-19T09:14:38.026Z,1001.01
2019-05-19T09:15:38.013Z,1001.01
2019-05-19T09:16:38.014Z,1000.98
2019-05-19T09:17:37.997Z,1000.97
2019-05-19T09:18:37.987Z,1001.06
2019-05-19T09:19:37.972Z,1000.98
2019-05-19T09:20:37.963Z,1000.95
2019-05-19T09:21:37.962Z,1000.99
2019-05-19T09:22:37.940Z,1001.05
2019-05-19T09:23:37.930Z,1000.98
2019-05-19T09:24:37.922Z,1000.92
2019-05-19T09:25:37.910Z,1000.92
2019-05-19T09:26:37.910Z,1000.94
2019-05-19T09:27:37.949Z,1000.95
2019-05-19T09:28:37.880Z,1000.93
2019-05-19T09:29:37.869Z,1000.89
2019-05-19T09:30:37.857Z,1000.93
2019-05-19T09:31:41.101Z,1000.85
2019-05-19T09:32:37.848Z,1000.88
2019-05-19T09:33:37.825Z,1000.81
2019-05-19T09:34:37.817Z,1000.80
2019-05-19T09:35:37.806Z,1000.78
2019-05-19T09:36:37.794Z,1000.74
2019-05-19T09:37:37.800Z,1000.72
2019-05-19T09:38:37.773Z,1000.71
2019-05-19T09:39:37.762Z,1000.67
2019-05-19T09:40:37.755Z,1000.66
2019-05-19T09:41:37.743Z,1000.67
2019-05-19T09:42:37.750Z,1000.71
2019-05-19T09:43:37.721Z,1000.80
2019-05-19T09:44:37.728Z,1000.67
2019-05-19T09:45:37.699Z,1000.63
2019-05-19T09:46:37.691Z,1000.61
2019-05-19T09:47:37.921Z,1000.65
2019-05-19T09:48:37.668Z,1000.63
2019-05-19T09:49:37.657Z,1000.64
2019-05-19T09:50:37.648Z,1000.64
2019-05-19T09:51:37.638Z,1000.67
2019-05-19T09:52:37.636Z,1000.59
2019-05-19T09:53:37.613Z,1000.55
2019-05-19T09:54:45.214Z,1000.58
2019-05-19T09:55:38.593Z,1000.59
2019-05-19T09:56:37.587Z,1000.55
2019-05-19T09:57:37.727Z,1000.59
2019-05-19T09:58:37.560Z,1000.57
2019-05-19T09:59:37.549Z,1000.63
2019-05-19T10:00:37.539Z,1000.59
2019-05-19T10:01:37.528Z,1000.58
2019-05-19T10:02:37.527Z,1000.58
2019-05-19T10:03:37.509Z,1000.54
2019-05-19T10:04:37.499Z,1000.56
2019-05-19T10:05:37.505Z,1000.67
2019-05-19T10:06:37.479Z,1000.60
2019-05-19T10:07:37.478Z,1000.61
2019-05-19T10:08:37.453Z,1000.62
2019-05-19T10:09:37.448Z,1000.61
2019-05-19T10:10:37.433Z,1000.60
2019-05-19T10:11:37.424Z,1000.58
2019-05-19T10:12:37.421Z,1000.57
2019-05-19T10:13:37.941Z,1000.60
2019-05-19T10:14:37.394Z,1000.73
2019-05-19T10:15:37.381Z,1000.66
2019-05-19T10:16:37.451Z,1000.62
2019-05-19T10:17:37.371Z,1000.61
2019-05-19T10:18:37.353Z,1000.68
2019-05-19T10:19:37.340Z,1000.62
2019-05-19T10:20:37.328Z,1000.59
2019-05-19T10:21:37.320Z,1000.59
2019-05-19T10:22:37.315Z,1000.68
2019-05-19T10:23:37.297Z,1000.58
2019-05-19T10:24:37.286Z,1000.55
2019-05-19T10:25:37.277Z,1000.55
2019-05-19T10:26:37.266Z,1000.60
2019-05-19T10:27:37.265Z,1000.53
2019-05-19T10:28:37.245Z,1000.46
2019-05-19T10:29:37.234Z,1000.60
2019-05-19T10:30:37.229Z,1000.46
2019-05-19T10:31:37.215Z,1000.47
2019-05-19T10:32:37.214Z,1000.52
2019-05-19T10:33:37.196Z,1000.44
2019-05-19T10:34:37.184Z,1000.47
2019-05-19T10:35:37.222Z,1000.44
2019-05-19T10:36:37.161Z,1000.45
2019-05-19T10:37:37.230Z,1000.43
2019-05-19T10:38:37.142Z,1000.38
2019-05-19T10:39:37.129Z,1000.44
2019-05-19T10:40:37.120Z,1000.44
2019-05-19T10:41:37.122Z,1000.36
2019-05-19T10:42:37.131Z,1000.35
2019-05-19T10:43:37.090Z,1000.36
2019-05-19T10:44:37.077Z,1000.39
2019-05-19T10:45:37.066Z,1000.34
2019-05-19T10:46:37.056Z,1000.37
2019-05-19T10:47:37.044Z,1000.37
2019-05-19T10:48:37.042Z,1000.33
2019-05-19T10:49:37.028Z,1000.35
2019-05-19T10:50:37.013Z,1000.34
2019-05-19T10:51:37.004Z,1000.38
2019-05-19T10:52:36.994Z,1000.36
2019-05-19T10:53:36.998Z,1000.38
2019-05-19T10:54:36.972Z,1000.32
2019-05-19T10:55:37.220Z,1000.34
2019-05-19T10:56:36.950Z,1000.34
2019-05-19T10:57:36.944Z,1000.36
2019-05-19T10:58:36.937Z,1000.35
2019-05-19T10:59:36.921Z,1000.30
2019-05-19T11:00:36.908Z,1000.26
2019-05-19T11:01:36.900Z,1000.32
2019-05-19T11:02:36.888Z,1000.29
2019-05-19T11:03:36.887Z,1000.29
2019-05-19T11:04:36.867Z,1000.28
2019-05-19T11:05:36.855Z,1000.23
2019-05-19T11:06:36.848Z,1000.24
2019-05-19T11:07:36.840Z,1000.16
2019-05-19T11:08:36.835Z,1000.19
2019-05-19T11:09:36.819Z,1000.16
2019-05-19T11:10:36.801Z,1000.20
2019-05-19T11:11:36.789Z,1000.20
2019-05-19T11:12:36.783Z,1000.16
2019-05-19T11:13:36.776Z,1000.17
2019-05-19T11:14:36.768Z,1000.10
2019-05-19T11:15:36.746Z,1000.23
2019-05-19T11:16:36.737Z,1000.17
2019-05-19T11:17:36.728Z,1000.13
2019-05-19T11:18:36.727Z,1000.10
2019-05-19T11:19:36.708Z,1000.16
2019-05-19T11:20:36.693Z,1000.16
2019-05-19T11:21:36.682Z,1000.12
2019-05-19T11:22:36.672Z,1000.11
2019-05-19T11:23:36.671Z,1000.06
2019-05-19T11:24:36.657Z,1000.09
2019-05-19T11:25:50.587Z,1000.09
2019-05-19T11:26:37.628Z,1000.04
2019-05-19T11:27:36.618Z,1000.04
2019-05-19T11:28:36.617Z,1000.05
2019-05-19T11:29:36.604Z,1000.07
2019-05-19T11:30:36.587Z,1000.06
2019-05-19T11:31:36.575Z,1000.04
2019-05-19T11:32:36.565Z,999.93
2019-05-19T11:33:36.563Z,1000.10
2019-05-19T11:34:36.545Z,1000.10
2019-05-19T11:35:36.534Z,1000.02
2019-05-19T11:36:36.524Z,1000.01
2019-05-19T11:37:36.514Z,999.98
2019-05-19T11:38:36.507Z,999.95
2019-05-19T11:39:36.492Z,999.90
2019-05-19T11:40:36.479Z,999.94
2019-05-19T11:41:36.467Z,999.98
2019-05-19T11:42:36.459Z,1000.02
2019-05-19T11:43:36.456Z,1000.03
2019-05-19T11:44:36.435Z,1000.06
2019-05-19T11:45:36.425Z,1000.03
2019-05-19T11:46:36.414Z,999.97
2019-05-19T11:47:36.409Z,999.91
2019-05-19T11:48:36.400Z,999.95
2019-05-19T11:49:36.382Z,999.95
2019-05-19T11:50:36.371Z,999.98
2019-05-19T11:51:36.362Z,999.95
2019-05-19T11:52:36.350Z,999.88
2019-05-19T11:53:36.350Z,999.94
2019-05-19T11:54:36.329Z,999.93
2019-05-19T11:55:36.317Z,999.92
2019-05-19T11:56:36.308Z,999.86
2019-05-19T11:57:36.300Z,999.87
2019-05-19T11:58:36.322Z,999.84
2019-05-19T11:59:36.275Z,999.85
2019-05-19T12:00:36.276Z,999.85
2019-05-19T12:01:36.256Z,999.82
2019-05-19T12:02:36.252Z,999.82
2019-05-19T12:03:36.234Z,999.89
2019-05-19T12:04:36.351Z,999.88
2019-05-19T12:05:36.213Z,999.84
2019-05-19T12:06:39.816Z,999.86